sensor_id;sensor_type;location;lat;lon;timestamp;pressure;altitude;pressure_sealevel;temperature;humidity
31285;BME280;56605;51.516;6.742;2022-08-21T00:01:35;101503.22;;;16.98;95.60
31285;BME280;56605;51.516;6.742;2022-08-21T00:04:08;101499.69;;;16.97;95.52
31285;BME280;56605;51.516;6.742;2022-08-21T00:06:34;101499.81;;;16.89;95.91
31285;BME280;56605;51.516;6.742;2022-08-21T00:09:01;101491.44;;;16.84;96.22
31285;BME280;56605;51.516;6.742;2022-08-21T00:11:27;101494.13;;;16.62;97.37
31285;BME280;56605;51.516;6.742;2022-08-21T00:13:53;101486.38;;;16.74;97.12
31285;BME280;56605;51.516;6.742;2022-08-21T00:16:18;101484.19;;;16.84;96.82
31285;BME280;56605;51.516;6.742;2022-08-21T00:18:43;101490.56;;;16.98;95.90
31285;BME280;56605;51.516;6.742;2022-08-21T00:21:12;101478.09;;;16.97;96.31
31285;BME280;56605;51.516;6.742;2022-08-21T00:23:37;101480.06;;;16.67;97.55
31285;BME280;56605;51.516;6.742;2022-08-21T00:26:03;101479.25;;;16.51;98.60
31285;BME280;56605;51.516;6.742;2022-08-21T00:28:28;101474.97;;;16.57;98.83
31285;BME280;56605;51.516;6.742;2022-08-21T00:30:54;101467.41;;;16.67;98.28
31285;BME280;56605;51.516;6.742;2022-08-21T00:33:19;101463.56;;;16.55;98.48
31285;BME280;56605;51.516;6.742;2022-08-21T00:35:45;101464.00;;;16.06;100.00
31285;BME280;56605;51.516;6.742;2022-08-21T00:38:11;101461.59;;;15.96;100.00
31285;BME280;56605;51.516;6.742;2022-08-21T00:40:48;101465.69;;;16.07;100.00
31285;BME280;56605;51.516;6.742;2022-08-21T00:43:16;101470.22;;;16.22;100.00
31285;BME280;56605;51.516;6.742;2022-08-21T00:45:42;101462.97;;;16.22;100.00
31285;BME280;56605;51.516;6.742;2022-08-21T00:48:07;101474.13;;;16.04;100.00
31285;BME280;56605;51.516;6.742;2022-08-21T00:50:35;101468.06;;;15.87;100.00
31285;BME280;56605;51.516;6.742;2022-08-21T00:53:02;101473.34;;;15.80;100.00
31285;BME280;56605;51.516;6.742;2022-08-21T00:55:29;101465.56;;;15.85;100.00
31285;BME280;56605;51.516;6.742;2022-08-21T00:57:57;101462.94;;;15.77;100.00
31285;BME280;56605;51.516;6.742;2022-08-21T01:00:29;101458.69;;;15.68;100.00
31285;BME280;56605;51.516;6.742;2022-08-21T01:02:58;101457.56;;;15.77;100.00
31285;BME280;56605;51.516;6.742;2022-08-21T01:05:24;101456.34;;;15.95;100.00
31285;BME280;56605;51.516;6.742;2022-08-21T01:07:50;101453.75;;;15.71;100.00
31285;BME280;56605;51.516;6.742;2022-08-21T01:10:16;101461.94;;;15.63;100.00
31285;BME280;56605;51.516;6.742;2022-08-21T01:12:43;101464.06;;;15.68;100.00
31285;BME280;56605;51.516;6.742;2022-08-21T01:15:09;101466.06;;;15.51;100.00
31285;BME280;56605;51.516;6.742;2022-08-21T01:17:34;101465.31;;;15.42;100.00
31285;BME280;56605;51.516;6.742;2022-08-21T01:20:04;101458.56;;;15.61;100.00
31285;BME280;56605;51.516;6.742;2022-08-21T01:22:29;101473.59;;;15.55;100.00
31285;BME280;56605;51.516;6.742;2022-08-21T01:24:55;101476.19;;;15.25;100.00
31285;BME280;56605;51.516;6.742;2022-08-21T01:27:20;101476.91;;;15.42;100.00
31285;BME280;56605;51.516;6.742;2022-08-21T01:29:58;101475.63;;;15.38;100.00
31285;BME280;56605;51.516;6.742;2022-08-21T01:32:26;101466.03;;;15.36;100.00
31285;BME280;56605;51.516;6.742;2022-08-21T01:34:51;101478.03;;;15.09;100.00
31285;BME280;56605;51.516;6.742;2022-08-21T01:37:18;101469.84;;;15.03;100.00
31285;BME280;56605;51.516;6.742;2022-08-21T01:39:45;101480.88;;;15.08;100.00
31285;BME280;56605;51.516;6.742;2022-08-21T01:42:10;101481.38;;;15.12;100.00
31285;BME280;56605;51.516;6.742;2022-08-21T01:44:36;101474.44;;;15.17;100.00
31285;BME280;56605;51.516;6.742;2022-08-21T01:47:04;101471.16;;;15.07;100.00
31285;BME280;56605;51.516;6.742;2022-08-21T01:49:30;101474.38;;;15.26;100.00
31285;BME280;56605;51.516;6.742;2022-08-21T01:51:55;101470.22;;;15.15;100.00
31285;BME280;56605;51.516;6.742;2022-08-21T01:54:21;101469.25;;;15.16;100.00
31285;BME280;56605;51.516;6.742;2022-08-21T01:56:48;101462.72;;;15.10;100.00
31285;BME280;56605;51.516;6.742;2022-08-21T01:59:15;101463.56;;;15.11;100.00
31285;BME280;56605;51.516;6.742;2022-08-21T02:01:40;101462.72;;;15.10;100.00
31285;BME280;56605;51.516;6.742;2022-08-21T02:04:07;101469.75;;;15.34;100.00
31285;BME280;56605;51.516;6.742;2022-08-21T02:06:33;101466.88;;;15.36;100.00
31285;BME280;56605;51.516;6.742;2022-08-21T02:09:00;101471.91;;;15.39;100.00
31285;BME280;56605;51.516;6.742;2022-08-21T02:11:25;101454.63;;;15.33;100.00
31285;BME280;56605;51.516;6.742;2022-08-21T02:13:51;101461.13;;;15.39;100.00
31285;BME280;56605;51.516;6.742;2022-08-21T02:16:16;101467.72;;;15.37;100.00
31285;BME280;56605;51.516;6.742;2022-08-21T02:18:42;101458.22;;;15.26;100.00
31285;BME280;56605;51.516;6.742;2022-08-21T02:21:08;101457.34;;;15.49;100.00
31285;BME280;56605;51.516;6.742;2022-08-21T02:23:33;101455.91;;;15.23;100.00
31285;BME280;56605;51.516;6.742;2022-08-21T02:26:01;101455.72;;;15.24;100.00
31285;BME280;56605;51.516;6.742;2022-08-21T02:28:27;101458.25;;;15.02;100.00
31285;BME280;56605;51.516;6.742;2022-08-21T02:30:54;101455.13;;;15.14;100.00
31285;BME280;56605;51.516;6.742;2022-08-21T02:33:19;101451.53;;;15.21;100.00
31285;BME280;56605;51.516;6.742;2022-08-21T02:35:46;101450.94;;;15.11;100.00
31285;BME280;56605;51.516;6.742;2022-08-21T02:38:15;101452.75;;;15.19;100.00
31285;BME280;56605;51.516;6.742;2022-08-21T02:40:43;101457.03;;;15.05;100.00
31285;BME280;56605;51.516;6.742;2022-08-21T02:43:09;101458.78;;;14.98;100.00
31285;BME280;56605;51.516;6.742;2022-08-21T02:45:35;101444.56;;;14.89;100.00
31285;BME280;56605;51.516;6.742;2022-08-21T02:48:06;101454.00;;;14.85;100.00
31285;BME280;56605;51.516;6.742;2022-08-21T02:50:34;101449.44;;;14.85;100.00
31285;BME280;56605;51.516;6.742;2022-08-21T02:53:01;101456.59;;;14.69;100.00
31285;BME280;56605;51.516;6.742;2022-08-21T02:55:28;101447.59;;;14.86;100.00
31285;BME280;56605;51.516;6.742;2022-08-21T02:57:55;101445.16;;;14.67;100.00
31285;BME280;56605;51.516;6.742;2022-08-21T03:00:23;101451.56;;;14.66;100.00
31285;BME280;56605;51.516;6.742;2022-08-21T03:02:49;101451.88;;;14.71;100.00
31285;BME280;56605;51.516;6.742;2022-08-21T03:05:15;101453.00;;;14.77;100.00
31285;BME280;56605;51.516;6.742;2022-08-21T03:07:42;101447.91;;;14.59;100.00
31285;BME280;56605;51.516;6.742;2022-08-21T03:10:08;101454.59;;;14.63;100.00
31285;BME280;56605;51.516;6.742;2022-08-21T03:12:34;101444.69;;;14.64;100.00
31285;BME280;56605;51.516;6.742;2022-08-21T03:15:01;101440.69;;;14.60;100.00
31285;BME280;56605;51.516;6.742;2022-08-21T03:17:26;101445.06;;;14.61;100.00
31285;BME280;56605;51.516;6.742;2022-08-21T03:19:52;101444.09;;;14.53;100.00
31285;BME280;56605;51.516;6.742;2022-08-21T03:22:17;101443.25;;;14.53;100.00
31285;BME280;56605;51.516;6.742;2022-08-21T03:24:43;101439.94;;;14.42;100.00
31285;BME280;56605;51.516;6.742;2022-08-21T03:27:08;101446.34;;;14.41;100.00
31285;BME280;56605;51.516;6.742;2022-08-21T03:29:33;101445.47;;;14.49;100.00
31285;BME280;56605;51.516;6.742;2022-08-21T03:31:59;101442.94;;;14.48;100.00
31285;BME280;56605;51.516;6.742;2022-08-21T03:34:24;101448.50;;;14.46;100.00
31285;BME280;56605;51.516;6.742;2022-08-21T03:36:49;101449.81;;;14.50;100.00
31285;BME280;56605;51.516;6.742;2022-08-21T03:39:16;101450.16;;;14.47;100.00
31285;BME280;56605;51.516;6.742;2022-08-21T03:41:42;101453.06;;;14.37;100.00
31285;BME280;56605;51.516;6.742;2022-08-21T03:44:07;101451.78;;;14.56;100.00
31285;BME280;56605;51.516;6.742;2022-08-21T03:46:33;101448.84;;;14.43;100.00
31285;BME280;56605;51.516;6.742;2022-08-21T03:48:59;101450.91;;;14.64;100.00
31285;BME280;56605;51.516;6.742;2022-08-21T03:51:24;101446.28;;;14.50;100.00
31285;BME280;56605;51.516;6.742;2022-08-21T03:53:49;101441.22;;;14.55;100.00
31285;BME280;56605;51.516;6.742;2022-08-21T03:56:15;101441.50;;;14.60;100.00
31285;BME280;56605;51.516;6.742;2022-08-21T03:58:41;101450.03;;;14.40;100.00
31285;BME280;56605;51.516;6.742;2022-08-21T04:01:07;101450.84;;;14.41;100.00
31285;BME280;56605;51.516;6.742;2022-08-21T04:03:35;101445.41;;;14.57;100.00
31285;BME280;56605;51.516;6.742;2022-08-21T04:06:00;101454.81;;;14.22;100.00
31285;BME280;56605;51.516;6.742;2022-08-21T04:08:26;101450.28;;;14.22;100.00
31285;BME280;56605;51.516;6.742;2022-08-21T04:10:53;101464.28;;;14.41;100.00
31285;BME280;56605;51.516;6.742;2022-08-21T04:13:20;101461.78;;;14.39;100.00
31285;BME280;56605;51.516;6.742;2022-08-21T04:15:45;101467.06;;;14.24;100.00
31285;BME280;56605;51.516;6.742;2022-08-21T04:18:11;101467.44;;;14.13;100.00
31285;BME280;56605;51.516;6.742;2022-08-21T04:20:37;101465.13;;;14.41;100.00
31285;BME280;56605;51.516;6.742;2022-08-21T04:23:03;101467.31;;;14.46;100.00
31285;BME280;56605;51.516;6.742;2022-08-21T04:25:28;101466.59;;;14.52;100.00
31285;BME280;56605;51.516;6.742;2022-08-21T04:27:54;101464.22;;;14.57;100.00
31285;BME280;56605;51.516;6.742;2022-08-21T04:30:20;101467.56;;;14.60;100.00
31285;BME280;56605;51.516;6.742;2022-08-21T04:32:47;101461.53;;;14.57;100.00
31285;BME280;56605;51.516;6.742;2022-08-21T04:35:16;101464.63;;;14.38;100.00
31285;BME280;56605;51.516;6.742;2022-08-21T04:37:42;101465.47;;;14.38;100.00
31285;BME280;56605;51.516;6.742;2022-08-21T04:40:10;101460.44;;;14.43;100.00
31285;BME280;56605;51.516;6.742;2022-08-21T04:42:42;101465.53;;;14.22;100.00
31285;BME280;56605;51.516;6.742;2022-08-21T04:45:15;101464.28;;;14.41;100.00
31285;BME280;56605;51.516;6.742;2022-08-21T04:47:40;101475.69;;;14.43;100.00
31285;BME280;56605;51.516;6.742;2022-08-21T04:50:06;101465.19;;;14.33;100.00
31285;BME280;56605;51.516;6.742;2022-08-21T04:52:32;101462.16;;;14.36;100.00
31285;BME280;56605;51.516;6.742;2022-08-21T04:54:57;101463.41;;;14.49;100.00
31285;BME280;56605;51.516;6.742;2022-08-21T04:57:22;101464.63;;;14.46;100.00
31285;BME280;56605;51.516;6.742;2022-08-21T04:59:50;101467.69;;;14.35;100.00
31285;BME280;56605;51.516;6.742;2022-08-21T05:02:16;101465.00;;;14.35;100.00
31285;BME280;56605;51.516;6.742;2022-08-21T05:04:45;101464.72;;;14.53;100.00
31285;BME280;56605;51.516;6.742;2022-08-21T05:07:16;101460.59;;;14.42;100.00
31285;BME280;56605;51.516;6.742;2022-08-21T05:09:43;101468.16;;;14.47;100.00
31285;BME280;56605;51.516;6.742;2022-08-21T05:12:09;101461.59;;;14.41;100.00
31285;BME280;56605;51.516;6.742;2022-08-21T05:14:35;101464.34;;;14.64;100.00
31285;BME280;56605;51.516;6.742;2022-08-21T05:17:00;101472.16;;;14.82;100.00
31285;BME280;56605;51.516;6.742;2022-08-21T05:19:26;101466.13;;;14.80;100.00
31285;BME280;56605;51.516;6.742;2022-08-21T05:21:51;101464.56;;;15.09;100.00
31285;BME280;56605;51.516;6.742;2022-08-21T05:24:17;101470.97;;;15.08;100.00
31285;BME280;56605;51.516;6.742;2022-08-21T05:26:43;101473.50;;;15.25;100.00
31285;BME280;56605;51.516;6.742;2022-08-21T05:29:10;101472.38;;;15.19;100.00
31285;BME280;56605;51.516;6.742;2022-08-21T05:31:36;101479.66;;;15.34;100.00
31285;BME280;56605;51.516;6.742;2022-08-21T05:34:01;101467.63;;;15.45;100.00
31285;BME280;56605;51.516;6.742;2022-08-21T05:36:27;101477.72;;;15.66;100.00
31285;BME280;56605;51.516;6.742;2022-08-21T05:38:52;101471.22;;;15.91;99.85
31285;BME280;56605;51.516;6.742;2022-08-21T05:41:17;101468.94;;;16.03;99.61
31285;BME280;56605;51.516;6.742;2022-08-21T05:43:42;101469.47;;;16.13;98.47
31285;BME280;56605;51.516;6.742;2022-08-21T05:46:08;101474.88;;;16.13;96.78
31285;BME280;56605;51.516;6.742;2022-08-21T05:48:35;101465.31;;;16.10;96.63
31285;BME280;56605;51.516;6.742;2022-08-21T05:51:12;101464.09;;;16.13;96.25
31285;BME280;56605;51.516;6.742;2022-08-21T05:53:39;101468.25;;;16.16;96.12
31285;BME280;56605;51.516;6.742;2022-08-21T05:56:07;101469.09;;;16.16;96.03
31285;BME280;56605;51.516;6.742;2022-08-21T05:58:33;101464.34;;;16.18;95.55
31285;BME280;56605;51.516;6.742;2022-08-21T06:01:00;101475.03;;;16.27;95.56
31285;BME280;56605;51.516;6.742;2022-08-21T06:03:29;101472.97;;;16.29;95.52
31285;BME280;56605;51.516;6.742;2022-08-21T06:05:55;101472.59;;;16.32;95.56
31285;BME280;56605;51.516;6.742;2022-08-21T06:08:21;101472.53;;;16.40;95.63
31285;BME280;56605;51.516;6.742;2022-08-21T06:10:48;101470.44;;;16.42;95.31
31285;BME280;56605;51.516;6.742;2022-08-21T06:13:15;101472.53;;;16.40;95.35
31285;BME280;56605;51.516;6.742;2022-08-21T06:15:41;101477.91;;;16.40;95.84
31285;BME280;56605;51.516;6.742;2022-08-21T06:18:07;101477.63;;;16.35;94.75
31285;BME280;56605;51.516;6.742;2022-08-21T06:20:33;101478.09;;;16.39;94.16
31285;BME280;56605;51.516;6.742;2022-08-21T06:22:59;101489.97;;;16.44;93.99
31285;BME280;56605;51.516;6.742;2022-08-21T06:25:25;101476.69;;;16.43;94.03
31285;BME280;56605;51.516;6.742;2022-08-21T06:27:50;101480.41;;;16.42;94.45
31285;BME280;56605;51.516;6.742;2022-08-21T06:30:17;101480.22;;;16.43;94.15
31285;BME280;56605;51.516;6.742;2022-08-21T06:32:43;101477.78;;;16.48;93.31
31285;BME280;56605;51.516;6.742;2022-08-21T06:35:09;101478.50;;;16.57;93.03
31285;BME280;56605;51.516;6.742;2022-08-21T06:37:35;101477.09;;;16.61;93.41
31285;BME280;56605;51.516;6.742;2022-08-21T06:40:00;101482.25;;;16.78;92.02
31285;BME280;56605;51.516;6.742;2022-08-21T06:42:26;101477.97;;;16.84;91.71
31285;BME280;56605;51.516;6.742;2022-08-21T06:44:53;101487.34;;;16.88;90.92
31285;BME280;56605;51.516;6.742;2022-08-21T06:47:18;101482.06;;;16.80;90.78
31285;BME280;56605;51.516;6.742;2022-08-21T06:49:43;101478.88;;;16.91;89.87
31285;BME280;56605;51.516;6.742;2022-08-21T06:52:10;101479.13;;;16.96;89.70
31285;BME280;56605;51.516;6.742;2022-08-21T06:54:36;101481.53;;;17.06;89.49
31285;BME280;56605;51.516;6.742;2022-08-21T06:57:01;101486.75;;;17.08;88.99
31285;BME280;56605;51.516;6.742;2022-08-21T06:59:27;101481.84;;;17.18;88.70
31285;BME280;56605;51.516;6.742;2022-08-21T07:03:38;101478.00;;;17.28;86.79
31285;BME280;56605;51.516;6.742;2022-08-21T07:06:05;101474.13;;;17.37;86.59
31285;BME280;56605;51.516;6.742;2022-08-21T07:08:31;101469.38;;;17.39;86.30
31285;BME280;56605;51.516;6.742;2022-08-21T07:10:58;101483.28;;;17.43;86.28
31285;BME280;56605;51.516;6.742;2022-08-21T07:13:24;101487.28;;;17.47;85.73
31285;BME280;56605;51.516;6.742;2022-08-21T07:15:49;101480.00;;;17.47;85.56
31285;BME280;56605;51.516;6.742;2022-08-21T07:18:15;101487.09;;;17.48;85.79
31285;BME280;56605;51.516;6.742;2022-08-21T07:20:41;101488.56;;;17.51;85.01
31285;BME280;56605;51.516;6.742;2022-08-21T07:25:45;101487.72;;;17.79;84.74
31285;BME280;56605;51.516;6.742;2022-08-21T07:28:11;101485.09;;;17.93;83.26
31285;BME280;56605;51.516;6.742;2022-08-21T07:30:36;101477.44;;;17.96;81.97
31285;BME280;56605;51.516;6.742;2022-08-21T07:33:01;101482.75;;;18.11;81.22
31285;BME280;56605;51.516;6.742;2022-08-21T07:35:27;101486.94;;;18.21;79.89
31285;BME280;56605;51.516;6.742;2022-08-21T07:37:53;101488.78;;;18.14;80.75
31285;BME280;56605;51.516;6.742;2022-08-21T07:40:18;101490.41;;;18.08;80.53
31285;BME280;56605;51.516;6.742;2022-08-21T07:42:46;101480.06;;;18.18;80.36
31285;BME280;56605;51.516;6.742;2022-08-21T07:45:12;101492.44;;;18.41;79.95
31285;BME280;56605;51.516;6.742;2022-08-21T07:47:37;101497.38;;;18.24;79.92
31285;BME280;56605;51.516;6.742;2022-08-21T07:50:05;101493.41;;;18.27;80.16
31285;BME280;56605;51.516;6.742;2022-08-21T07:52:31;101496.72;;;18.29;79.59
31285;BME280;56605;51.516;6.742;2022-08-21T07:54:57;101496.34;;;18.32;78.63
31285;BME280;56605;51.516;6.742;2022-08-21T07:57:23;101490.50;;;18.28;77.00
31285;BME280;56605;51.516;6.742;2022-08-21T07:59:48;101483.56;;;18.61;77.25
31285;BME280;56605;51.516;6.742;2022-08-21T08:02:28;101482.69;;;18.47;76.96
31285;BME280;56605;51.516;6.742;2022-08-21T08:04:54;101487.78;;;18.77;75.71
31285;BME280;56605;51.516;6.742;2022-08-21T08:07:19;101483.72;;;18.46;76.06
31285;BME280;56605;51.516;6.742;2022-08-21T08:09:45;101486.34;;;18.25;76.12
31285;BME280;56605;51.516;6.742;2022-08-21T08:12:11;101476.81;;;18.36;76.53
31285;BME280;56605;51.516;6.742;2022-08-21T08:14:36;101478.13;;;18.54;75.93
31285;BME280;56605;51.516;6.742;2022-08-21T08:17:01;101478.41;;;18.73;75.38
31285;BME280;56605;51.516;6.742;2022-08-21T08:19:27;101480.88;;;18.68;75.97
31285;BME280;56605;51.516;6.742;2022-08-21T08:21:53;101479.00;;;18.68;76.59
31285;BME280;56605;51.516;6.742;2022-08-21T08:24:18;101476.91;;;18.70;76.39
31285;BME280;56605;51.516;6.742;2022-08-21T08:26:44;101480.91;;;18.81;75.21
31285;BME280;56605;51.516;6.742;2022-08-21T08:29:09;101474.72;;;19.01;75.38
31285;BME280;56605;51.516;6.742;2022-08-21T08:31:34;101480.56;;;19.18;74.58
31285;BME280;56605;51.516;6.742;2022-08-21T08:34:00;101477.25;;;19.50;73.44
31285;BME280;56605;51.516;6.742;2022-08-21T08:36:32;101486.59;;;19.68;71.91
31285;BME280;56605;51.516;6.742;2022-08-21T08:38:58;101475.09;;;19.72;71.57
31285;BME280;56605;51.516;6.742;2022-08-21T08:41:24;101473.88;;;19.68;71.67
31285;BME280;56605;51.516;6.742;2022-08-21T08:43:52;101466.88;;;20.20;70.20
31285;BME280;56605;51.516;6.742;2022-08-21T08:46:23;101475.22;;;20.18;69.54
31285;BME280;56605;51.516;6.742;2022-08-21T08:49:00;101474.47;;;20.50;69.09
31285;BME280;56605;51.516;6.742;2022-08-21T08:51:45;101479.41;;;20.21;69.42
31285;BME280;56605;51.516;6.742;2022-08-21T08:54:17;101469.94;;;20.37;68.75
31285;BME280;56605;51.516;6.742;2022-08-21T08:56:44;101471.50;;;20.58;67.90
31285;BME280;56605;51.516;6.742;2022-08-21T08:59:16;101462.41;;;20.78;67.78
31285;BME280;56605;51.516;6.742;2022-08-21T09:01:43;101464.41;;;20.96;66.59
31285;BME280;56605;51.516;6.742;2022-08-21T09:04:11;101463.88;;;21.13;65.78
31285;BME280;56605;51.516;6.742;2022-08-21T09:07:10;101471.00;;;21.33;65.32
31285;BME280;56605;51.516;6.742;2022-08-21T09:12:56;101465.00;;;20.98;65.92
31285;BME280;56605;51.516;6.742;2022-08-21T09:15:32;101460.69;;;20.90;66.41
31285;BME280;56605;51.516;6.742;2022-08-21T09:26:24;64886.44;;;-150.46;100.00
31285;BME280;56605;51.516;6.742;2022-08-21T09:28:55;64886.44;;;-150.46;100.00
31285;BME280;56605;51.516;6.742;2022-08-21T09:31:25;64886.44;;;-150.46;100.00
31285;BME280;56605;51.516;6.742;2022-08-21T09:33:58;64886.44;;;-150.46;100.00
31285;BME280;56605;51.516;6.742;2022-08-21T09:36:38;64886.44;;;-150.46;100.00
31285;BME280;56605;51.516;6.742;2022-08-21T09:39:04;64886.44;;;-150.46;100.00
31285;BME280;56605;51.516;6.742;2022-08-21T09:41:32;64886.44;;;-150.46;100.00
31285;BME280;56605;51.516;6.742;2022-08-21T09:43:58;64886.44;;;-150.46;100.00
31285;BME280;56605;51.516;6.742;2022-08-21T09:46:25;64886.44;;;-150.46;100.00
31285;BME280;56605;51.516;6.742;2022-08-21T09:48:54;64886.44;;;-150.46;100.00
31285;BME280;56605;51.516;6.742;2022-08-21T09:51:31;64886.44;;;-150.46;100.00
31285;BME280;56605;51.516;6.742;2022-08-21T09:54:14;64886.44;;;-150.46;100.00
31285;BME280;56605;51.516;6.742;2022-08-21T09:56:56;64886.44;;;-150.46;100.00
31285;BME280;56605;51.516;6.742;2022-08-21T09:59:42;64886.44;;;-150.46;100.00
31285;BME280;56605;51.516;6.742;2022-08-21T10:02:31;64886.44;;;-150.46;100.00
31285;BME280;56605;51.516;6.742;2022-08-21T10:07:30;64886.44;;;-150.46;100.00
31285;BME280;56605;51.516;6.742;2022-08-21T10:12:51;64886.44;;;-150.46;100.00
31285;BME280;56605;51.516;6.742;2022-08-21T10:23:45;64886.44;;;-150.46;100.00
31285;BME280;56605;51.516;6.742;2022-08-21T10:37:46;64886.44;;;-150.46;100.00
31285;BME280;56605;51.516;6.742;2022-08-21T10:40:25;64886.44;;;-150.46;100.00
31285;BME280;56605;51.516;6.742;2022-08-21T10:43:16;64886.44;;;-150.46;100.00
31285;BME280;56605;51.516;6.742;2022-08-21T10:51:33;64886.44;;;-150.46;100.00
31285;BME280;56605;51.516;6.742;2022-08-21T10:56:41;64886.44;;;-150.46;100.00
31285;BME280;56605;51.516;6.742;2022-08-21T11:02:17;64886.44;;;-150.46;100.00
31285;BME280;56605;51.516;6.742;2022-08-21T11:05:21;64886.44;;;-150.46;100.00
31285;BME280;56605;51.516;6.742;2022-08-21T11:08:06;64886.44;;;-150.46;100.00
31285;BME280;56605;51.516;6.742;2022-08-21T11:10:40;64886.44;;;-150.46;100.00
31285;BME280;56605;51.516;6.742;2022-08-21T11:13:26;64886.44;;;-150.46;100.00
31285;BME280;56605;51.516;6.742;2022-08-21T11:16:16;64886.44;;;-150.46;100.00
31285;BME280;56605;51.516;6.742;2022-08-21T11:18:49;64886.44;;;-150.46;100.00
31285;BME280;56605;51.516;6.742;2022-08-21T11:24:15;64886.44;;;-150.46;100.00
31285;BME280;56605;51.516;6.742;2022-08-21T11:26:56;64886.44;;;-150.46;100.00
31285;BME280;56605;51.516;6.742;2022-08-21T11:29:27;64886.44;;;-150.46;100.00
31285;BME280;56605;51.516;6.742;2022-08-21T11:37:45;64886.44;;;-150.46;100.00
31285;BME280;56605;51.516;6.742;2022-08-21T11:43:16;64886.44;;;-150.46;100.00
31285;BME280;56605;51.516;6.742;2022-08-21T11:45:55;64886.44;;;-150.46;100.00
31285;BME280;56605;51.516;6.742;2022-08-21T11:51:16;64886.44;;;-150.46;100.00
31285;BME280;56605;51.516;6.742;2022-08-21T11:57:02;64886.44;;;-150.46;100.00
31285;BME280;56605;51.516;6.742;2022-08-21T11:59:38;64886.44;;;-150.46;100.00
31285;BME280;56605;51.516;6.742;2022-08-21T12:02:10;64886.44;;;-150.46;100.00
31285;BME280;56605;51.516;6.742;2022-08-21T12:04:44;64886.44;;;-150.46;100.00
31285;BME280;56605;51.516;6.742;2022-08-21T12:10:00;64886.44;;;-150.46;100.00
31285;BME280;56605;51.516;6.742;2022-08-21T12:12:28;64886.44;;;-150.46;100.00
31285;BME280;56605;51.516;6.742;2022-08-21T12:18:01;64886.44;;;-150.46;100.00
31285;BME280;56605;51.516;6.742;2022-08-21T12:20:44;64886.44;;;-150.46;100.00
31285;BME280;56605;51.516;6.742;2022-08-21T12:25:45;64886.44;;;-150.46;100.00
31285;BME280;56605;51.516;6.742;2022-08-21T12:28:15;64886.44;;;-150.46;100.00
31285;BME280;56605;51.516;6.742;2022-08-21T12:30:44;64886.44;;;-150.46;100.00
31285;BME280;56605;51.516;6.742;2022-08-21T12:33:32;64886.44;;;-150.46;100.00
31285;BME280;56605;51.516;6.742;2022-08-21T12:36:06;64886.44;;;-150.46;100.00
31285;BME280;56605;51.516;6.742;2022-08-21T12:38:52;64886.44;;;-150.46;100.00
31285;BME280;56605;51.516;6.742;2022-08-21T12:41:21;64886.44;;;-150.46;100.00
31285;BME280;56605;51.516;6.742;2022-08-21T12:44:12;64886.44;;;-150.46;100.00
31285;BME280;56605;51.516;6.742;2022-08-21T12:46:55;64886.44;;;-150.46;100.00
31285;BME280;56605;51.516;6.742;2022-08-21T12:52:16;64886.44;;;-150.46;100.00
31285;BME280;56605;51.516;6.742;2022-08-21T12:54:45;64886.44;;;-150.46;100.00
31285;BME280;56605;51.516;6.742;2022-08-21T12:57:19;64886.44;;;-150.46;100.00
31285;BME280;56605;51.516;6.742;2022-08-21T12:59:45;64886.44;;;-150.46;100.00
31285;BME280;56605;51.516;6.742;2022-08-21T13:02:24;64886.44;;;-150.46;100.00
31285;BME280;56605;51.516;6.742;2022-08-21T13:04:52;64886.44;;;-150.46;100.00
31285;BME280;56605;51.516;6.742;2022-08-21T13:07:25;64886.44;;;-150.46;100.00
31285;BME280;56605;51.516;6.742;2022-08-21T13:10:03;64886.44;;;-150.46;100.00
31285;BME280;56605;51.516;6.742;2022-08-21T13:12:30;64886.44;;;-150.46;100.00
31285;BME280;56605;51.516;6.742;2022-08-21T13:14:59;64886.44;;;-150.46;100.00
31285;BME280;56605;51.516;6.742;2022-08-21T13:17:26;64886.44;;;-150.46;100.00
31285;BME280;56605;51.516;6.742;2022-08-21T13:19:57;64886.44;;;-150.46;100.00
31285;BME280;56605;51.516;6.742;2022-08-21T13:22:24;64886.44;;;-150.46;100.00
31285;BME280;56605;51.516;6.742;2022-08-21T13:24:50;64886.44;;;-150.46;100.00
31285;BME280;56605;51.516;6.742;2022-08-21T13:27:22;64886.44;;;-150.46;100.00
31285;BME280;56605;51.516;6.742;2022-08-21T13:30:00;64886.44;;;-150.46;100.00
31285;BME280;56605;51.516;6.742;2022-08-21T13:32:27;64886.44;;;-150.46;100.00
31285;BME280;56605;51.516;6.742;2022-08-21T13:34:54;64886.44;;;-150.46;100.00
31285;BME280;56605;51.516;6.742;2022-08-21T13:37:21;64886.44;;;-150.46;100.00
31285;BME280;56605;51.516;6.742;2022-08-21T13:39:50;64886.44;;;-150.46;100.00
31285;BME280;56605;51.516;6.742;2022-08-21T13:42:16;64886.44;;;-150.46;100.00
31285;BME280;56605;51.516;6.742;2022-08-21T13:44:44;64886.44;;;-150.46;100.00
31285;BME280;56605;51.516;6.742;2022-08-21T13:47:12;64886.44;;;-150.46;100.00
31285;BME280;56605;51.516;6.742;2022-08-21T13:49:51;64886.44;;;-150.46;100.00
31285;BME280;56605;51.516;6.742;2022-08-21T13:52:26;64886.44;;;-150.46;100.00
31285;BME280;56605;51.516;6.742;2022-08-21T13:55:06;64886.44;;;-150.46;100.00
31285;BME280;56605;51.516;6.742;2022-08-21T13:57:34;64886.44;;;-150.46;100.00
31285;BME280;56605;51.516;6.742;2022-08-21T14:00:20;64886.44;;;-150.46;100.00
31285;BME280;56605;51.516;6.742;2022-08-21T14:02:51;64886.44;;;-150.46;100.00
31285;BME280;56605;51.516;6.742;2022-08-21T14:05:27;64886.44;;;-150.46;100.00
31285;BME280;56605;51.516;6.742;2022-08-21T14:08:14;64886.44;;;-150.46;100.00
31285;BME280;56605;51.516;6.742;2022-08-21T14:10:47;64886.44;;;-150.46;100.00